sensor_id;sensor_type;location;lat;lon;timestamp;temperature;humidity
18868;DHT22;9563;49.240;9.088;2024-01-15T08:14:47;-0.90;99.90
18868;DHT22;9563;49.240;9.088;2024-01-15T08:17:14;-0.80;99.90
18868;DHT22;9563;49.240;9.088;2024-01-15T08:19:41;-0.80;99.90
18868;DHT22;9563;49.240;9.088;2024-01-15T08:22:08;-0.80;99.90
18868;DHT22;9563;49.240;9.088;2024-01-15T08:24:35;-0.70;99.90
18868;DHT22;9563;49.240;9.088;2024-01-15T08:27:02;-0.70;99.90
18868;DHT22;9563;49.240;9.088;2024-01-15T08:29:30;-0.60;99.90
18868;DHT22;9563;49.240;9.088;2024-01-15T08:32:00;-0.60;99.90
18868;DHT22;9563;49.240;9.088;2024-01-15T08:34:27;-0.60;99.90
18868;DHT22;9563;49.240;9.088;2024-01-15T08:36:54;-0.70;99.90
18868;DHT22;9563;49.240;9.088;2024-01-15T08:39:21;-0.70;99.90
18868;DHT22;9563;49.240;9.088;2024-01-15T08:41:48;-0.70;99.90
18868;DHT22;9563;49.240;9.088;2024-01-15T08:44:15;-0.80;99.90
18868;DHT22;9563;49.240;9.088;2024-01-15T08:46:42;-0.80;99.90
18868;DHT22;9563;49.240;9.088;2024-01-15T08:49:10;-0.80;99.90
18868;DHT22;9563;49.240;9.088;2024-01-15T08:51:38;-0.80;99.90
18868;DHT22;9563;49.240;9.088;2024-01-15T08:54:05;-0.80;99.90
18868;DHT22;9563;49.240;9.088;2024-01-15T08:56:34;-0.80;99.90
18868;DHT22;9563;49.240;9.088;2024-01-15T08:59:01;-0.80;99.90
18868;DHT22;9563;49.240;9.088;2024-01-15T09:01:28;-0.80;99.90
18868;DHT22;9563;49.240;9.088;2024-01-15T09:03:55;-0.80;99.90
18868;DHT22;9563;49.240;9.088;2024-01-15T09:06:24;-0.80;99.90
18868;DHT22;9563;49.240;9.088;2024-01-15T09:08:51;-0.80;99.90
18868;DHT22;9563;49.240;9.088;2024-01-15T09:11:17;-0.70;99.90
18868;DHT22;9563;49.240;9.088;2024-01-15T09:13:44;-0.70;99.90
18868;DHT22;9563;49.240;9.088;2024-01-15T09:16:11;-0.70;99.90
18868;DHT22;9563;49.240;9.088;2024-01-15T09:18:38;-0.70;99.90
18868;DHT22;9563;49.240;9.088;2024-01-15T09:21:05;-0.70;99.90
18868;DHT22;9563;49.240;9.088;2024-01-15T09:23:33;-0.60;99.90
18868;DHT22;9563;49.240;9.088;2024-01-15T09:26:01;-0.60;99.90
18868;DHT22;9563;49.240;9.088;2024-01-15T09:28:28;-0.60;99.90
18868;DHT22;9563;49.240;9.088;2024-01-15T09:30:55;-0.60;99.90
18868;DHT22;9563;49.240;9.088;2024-01-15T09:33:22;-0.60;99.90
18868;DHT22;9563;49.240;9.088;2024-01-15T09:35:48;-0.60;99.90
18868;DHT22;9563;49.240;9.088;2024-01-15T09:38:15;-0.60;99.90
18868;DHT22;9563;49.240;9.088;2024-01-15T09:40:45;-0.60;99.90
18868;DHT22;9563;49.240;9.088;2024-01-15T09:43:14;-0.60;99.90
18868;DHT22;9563;49.240;9.088;2024-01-15T09:45:42;-0.50;99.90
18868;DHT22;9563;49.240;9.088;2024-01-15T09:48:09;-0.50;99.90
18868;DHT22;9563;49.240;9.088;2024-01-15T09:50:36;-0.60;99.90
18868;DHT22;9563;49.240;9.088;2024-01-15T09:53:04;-0.60;99.90
18868;DHT22;9563;49.240;9.088;2024-01-15T09:55:32;-0.60;99.90
18868;DHT22;9563;49.240;9.088;2024-01-15T09:58:01;-0.60;99.90
18868;DHT22;9563;49.240;9.088;2024-01-15T10:00:29;-0.50;99.90
18868;DHT22;9563;49.240;9.088;2024-01-15T10:02:56;-0.50;99.90
18868;DHT22;9563;49.240;9.088;2024-01-15T10:05:23;-0.40;99.90
18868;DHT22;9563;49.240;9.088;2024-01-15T10:07:51;-0.50;99.90
18868;DHT22;9563;49.240;9.088;2024-01-15T10:10:20;-0.40;99.90
18868;DHT22;9563;49.240;9.088;2024-01-15T10:12:47;-0.40;99.90
18868;DHT22;9563;49.240;9.088;2024-01-15T10:15:16;-0.30;99.90
18868;DHT22;9563;49.240;9.088;2024-01-15T10:17:43;-0.30;99.90
18868;DHT22;9563;49.240;9.088;2024-01-15T10:20:11;-0.30;99.90
18868;DHT22;9563;49.240;9.088;2024-01-15T10:22:40;-0.30;99.90
18868;DHT22;9563;49.240;9.088;2024-01-15T10:25:10;-0.30;99.90
18868;DHT22;9563;49.240;9.088;2024-01-15T10:27:37;-0.30;99.90
18868;DHT22;9563;49.240;9.088;2024-01-15T10:30:05;-0.40;99.90
18868;DHT22;9563;49.240;9.088;2024-01-15T10:32:33;-0.40;99.90
18868;DHT22;9563;49.240;9.088;2024-01-15T10:35:00;-0.50;99.90
18868;DHT22;9563;49.240;9.088;2024-01-15T10:37:27;-0.50;99.90
18868;DHT22;9563;49.240;9.088;2024-01-15T10:39:54;-0.50;99.90
18868;DHT22;9563;49.240;9.088;2024-01-15T10:42:21;-0.50;99.90
18868;DHT22;9563;49.240;9.088;2024-01-15T10:44:48;-0.50;99.90
18868;DHT22;9563;49.240;9.088;2024-01-15T10:47:15;-0.60;99.90
18868;DHT22;9563;49.240;9.088;2024-01-15T10:49:45;-0.60;99.90
18868;DHT22;9563;49.240;9.088;2024-01-15T10:52:12;-0.50;99.90
18868;DHT22;9563;49.240;9.088;2024-01-15T10:54:41;-0.50;99.90
18868;DHT22;9563;49.240;9.088;2024-01-15T10:57:09;-0.60;99.90
18868;DHT22;9563;49.240;9.088;2024-01-15T10:59:36;-0.50;99.90
18868;DHT22;9563;49.240;9.088;2024-01-15T11:02:04;-0.50;99.90
18868;DHT22;9563;49.240;9.088;2024-01-15T11:04:32;-0.60;99.90
18868;DHT22;9563;49.240;9.088;2024-01-15T11:07:02;-0.60;99.90
18868;DHT22;9563;49.240;9.088;2024-01-15T11:09:29;-0.60;99.90
18868;DHT22;9563;49.240;9.088;2024-01-15T11:12:07;-0.60;99.90
18868;DHT22;9563;49.240;9.088;2024-01-15T11:14:34;-0.50;99.90
18868;DHT22;9563;49.240;9.088;2024-01-15T11:17:01;-0.50;99.90
18868;DHT22;9563;49.240;9.088;2024-01-15T11:19:36;-0.60;99.90
18868;DHT22;9563;49.240;9.088;2024-01-15T11:22:06;-0.60;99.90
18868;DHT22;9563;49.240;9.088;2024-01-15T11:24:37;-0.50;99.90
18868;DHT22;9563;49.240;9.088;2024-01-15T11:27:04;-0.50;99.90
18868;DHT22;9563;49.240;9.088;2024-01-15T11:29:33;-0.50;99.90
18868;DHT22;9563;49.240;9.088;2024-01-15T11:32:02;-0.50;99.90
18868;DHT22;9563;49.240;9.088;2024-01-15T11:34:55;-0.40;99.90
18868;DHT22;9563;49.240;9.088;2024-01-15T11:37:26;-0.40;99.90
18868;DHT22;9563;49.240;9.088;2024-01-15T11:39:54;-0.30;99.90
18868;DHT22;9563;49.240;9.088;2024-01-15T11:42:22;-0.30;99.90
18868;DHT22;9563;49.240;9.088;2024-01-15T11:44:49;-0.30;99.90
18868;DHT22;9563;49.240;9.088;2024-01-15T11:47:27;-0.30;99.90
18868;DHT22;9563;49.240;9.088;2024-01-15T11:50:01;-0.30;99.90
18868;DHT22;9563;49.240;9.088;2024-01-15T11:52:33;-0.30;99.90
18868;DHT22;9563;49.240;9.088;2024-01-15T11:55:05;-0.30;99.90
18868;DHT22;9563;49.240;9.088;2024-01-15T11:57:41;-0.20;99.90
18868;DHT22;9563;49.240;9.088;2024-01-15T12:00:10;-0.20;99.90
18868;DHT22;9563;49.240;9.088;2024-01-15T12:02:38;-0.20;99.90
18868;DHT22;9563;49.240;9.088;2024-01-15T12:05:05;-0.20;99.90
18868;DHT22;9563;49.240;9.088;2024-01-15T12:07:34;-0.20;99.90
18868;DHT22;9563;49.240;9.088;2024-01-15T12:10:01;-0.30;99.90
18868;DHT22;9563;49.240;9.088;2024-01-15T12:12:39;-0.20;99.90
18868;DHT22;9563;49.240;9.088;2024-01-15T12:15:08;-0.20;99.90
18868;DHT22;9563;49.240;9.088;2024-01-15T12:17:35;-0.20;99.90
18868;DHT22;9563;49.240;9.088;2024-01-15T12:20:02;-0.10;99.90
18868;DHT22;9563;49.240;9.088;2024-01-15T12:22:29;-0.10;99.90
18868;DHT22;9563;49.240;9.088;2024-01-15T12:24:58;-0.10;99.90
18868;DHT22;9563;49.240;9.088;2024-01-15T12:27:25;-0.10;99.90
18868;DHT22;9563;49.240;9.088;2024-01-15T12:29:53;-0.10;99.90
18868;DHT22;9563;49.240;9.088;2024-01-15T12:32:20;0.00;99.90
18868;DHT22;9563;49.240;9.088;2024-01-15T12:34:49;0.00;99.90
18868;DHT22;9563;49.240;9.088;2024-01-15T12:37:18;0.00;99.90
18868;DHT22;9563;49.240;9.088;2024-01-15T12:39:46;0.00;99.90
18868;DHT22;9563;49.240;9.088;2024-01-15T12:42:16;0.00;99.90
18868;DHT22;9563;49.240;9.088;2024-01-15T12:44:43;0.10;99.90
18868;DHT22;9563;49.240;9.088;2024-01-15T12:47:11;0.10;99.90
18868;DHT22;9563;49.240;9.088;2024-01-15T12:49:39;0.10;99.90
18868;DHT22;9563;49.240;9.088;2024-01-15T12:52:09;0.20;99.90
18868;DHT22;9563;49.240;9.088;2024-01-15T12:54:36;0.30;99.90
18868;DHT22;9563;49.240;9.088;2024-01-15T12:57:03;0.30;99.90
18868;DHT22;9563;49.240;9.088;2024-01-15T12:59:31;0.30;99.90
18868;DHT22;9563;49.240;9.088;2024-01-15T13:01:58;0.30;99.90
18868;DHT22;9563;49.240;9.088;2024-01-15T13:04:25;0.30;99.90
18868;DHT22;9563;49.240;9.088;2024-01-15T13:06:52;0.40;99.90
18868;DHT22;9563;49.240;9.088;2024-01-15T13:09:19;0.40;99.90
18868;DHT22;9563;49.240;9.088;2024-01-15T13:11:46;0.40;99.90
18868;DHT22;9563;49.240;9.088;2024-01-15T13:14:14;0.50;99.90
18868;DHT22;9563;49.240;9.088;2024-01-15T13:16:43;0.50;99.90
18868;DHT22;9563;49.240;9.088;2024-01-15T13:19:10;0.60;99.90
18868;DHT22;9563;49.240;9.088;2024-01-15T13:21:38;0.60;99.90
18868;DHT22;9563;49.240;9.088;2024-01-15T13:24:06;0.60;99.90
18868;DHT22;9563;49.240;9.088;2024-01-15T13:26:34;0.70;99.90
18868;DHT22;9563;49.240;9.088;2024-01-15T13:29:02;0.70;99.90
18868;DHT22;9563;49.240;9.088;2024-01-15T13:31:29;0.70;99.90
18868;DHT22;9563;49.240;9.088;2024-01-15T13:33:58;0.70;99.90
18868;DHT22;9563;49.240;9.088;2024-01-15T13:36:25;0.80;99.90
18868;DHT22;9563;49.240;9.088;2024-01-15T13:38:53;0.80;99.90
18868;DHT22;9563;49.240;9.088;2024-01-15T13:41:21;0.80;99.90
18868;DHT22;9563;49.240;9.088;2024-01-15T13:43:53;0.80;99.90
18868;DHT22;9563;49.240;9.088;2024-01-15T13:46:20;1.00;99.90
18868;DHT22;9563;49.240;9.088;2024-01-15T13:48:47;0.90;99.90
18868;DHT22;9563;49.240;9.088;2024-01-15T13:51:16;0.90;99.90
18868;DHT22;9563;49.240;9.088;2024-01-15T13:53:43;0.90;99.90
18868;DHT22;9563;49.240;9.088;2024-01-15T13:56:10;0.80;99.90
18868;DHT22;9563;49.240;9.088;2024-01-15T13:58:37;0.90;99.90
18868;DHT22;9563;49.240;9.088;2024-01-15T14:01:04;0.90;99.90
18868;DHT22;9563;49.240;9.088;2024-01-15T14:03:31;0.90;99.90
18868;DHT22;9563;49.240;9.088;2024-01-15T14:05:58;0.90;99.90
18868;DHT22;9563;49.240;9.088;2024-01-15T14:08:26;0.90;99.90
18868;DHT22;9563;49.240;9.088;2024-01-15T14:10:53;1.00;99.90
18868;DHT22;9563;49.240;9.088;2024-01-15T14:13:22;1.00;99.90
18868;DHT22;9563;49.240;9.088;2024-01-15T14:15:49;0.90;99.90
18868;DHT22;9563;49.240;9.088;2024-01-15T14:18:16;0.90;99.90
18868;DHT22;9563;49.240;9.088;2024-01-15T14:20:43;1.00;99.90
18868;DHT22;9563;49.240;9.088;2024-01-15T14:23:10;0.90;99.90
18868;DHT22;9563;49.240;9.088;2024-01-15T14:25:38;0.90;99.90
18868;DHT22;9563;49.240;9.088;2024-01-15T14:28:05;0.80;99.90
18868;DHT22;9563;49.240;9.088;2024-01-15T14:30:32;0.80;99.90
18868;DHT22;9563;49.240;9.088;2024-01-15T14:32:59;0.70;99.90
18868;DHT22;9563;49.240;9.088;2024-01-15T14:35:26;0.80;99.90
18868;DHT22;9563;49.240;9.088;2024-01-15T14:37:53;0.80;99.90
18868;DHT22;9563;49.240;9.088;2024-01-15T14:40:20;0.80;99.90
18868;DHT22;9563;49.240;9.088;2024-01-15T14:42:48;0.80;99.90
18868;DHT22;9563;49.240;9.088;2024-01-15T14:45:15;0.70;99.90
18868;DHT22;9563;49.240;9.088;2024-01-15T14:47:42;0.60;99.90
18868;DHT22;9563;49.240;9.088;2024-01-15T14:50:10;0.60;99.90
18868;DHT22;9563;49.240;9.088;2024-01-15T14:52:37;0.60;99.90
18868;DHT22;9563;49.240;9.088;2024-01-15T14:55:06;0.70;99.90
18868;DHT22;9563;49.240;9.088;2024-01-15T14:57:34;0.70;99.90
18868;DHT22;9563;49.240;9.088;2024-01-15T15:00:03;0.70;99.90
18868;DHT22;9563;49.240;9.088;2024-01-15T15:02:32;0.70;99.90
18868;DHT22;9563;49.240;9.088;2024-01-15T15:05:00;0.70;99.90
18868;DHT22;9563;49.240;9.088;2024-01-15T15:07:27;0.70;99.90
18868;DHT22;9563;49.240;9.088;2024-01-15T15:09:53;0.70;99.90
18868;DHT22;9563;49.240;9.088;2024-01-15T15:12:20;0.70;99.90
18868;DHT22;9563;49.240;9.088;2024-01-15T15:14:47;0.70;99.90
18868;DHT22;9563;49.240;9.088;2024-01-15T15:17:15;0.60;99.90
18868;DHT22;9563;49.240;9.088;2024-01-15T15:19:42;0.60;99.90
18868;DHT22;9563;49.240;9.088;2024-01-15T15:22:09;0.50;99.90
18868;DHT22;9563;49.240;9.088;2024-01-15T15:24:37;0.40;99.90
18868;DHT22;9563;49.240;9.088;2024-01-15T15:27:04;0.40;99.90
18868;DHT22;9563;49.240;9.088;2024-01-15T15:29:32;0.40;99.90
18868;DHT22;9563;49.240;9.088;2024-01-15T15:31:59;0.40;99.90
18868;DHT22;9563;49.240;9.088;2024-01-15T15:34:27;0.30;99.90
18868;DHT22;9563;49.240;9.088;2024-01-15T15:36:54;0.30;99.90
18868;DHT22;9563;49.240;9.088;2024-01-15T15:39:21;0.30;99.90
18868;DHT22;9563;49.240;9.088;2024-01-15T15:41:49;0.20;99.90
18868;DHT22;9563;49.240;9.088;2024-01-15T15:44:16;0.20;99.90
18868;DHT22;9563;49.240;9.088;2024-01-15T15:46:43;0.20;99.90
18868;DHT22;9563;49.240;9.088;2024-01-15T15:49:10;0.20;99.90
18868;DHT22;9563;49.240;9.088;2024-01-15T15:51:40;0.10;99.90
18868;DHT22;9563;49.240;9.088;2024-01-15T15:54:07;0.10;99.90
18868;DHT22;9563;49.240;9.088;2024-01-15T15:56:34;0.10;99.90
18868;DHT22;9563;49.240;9.088;2024-01-15T15:59:04;0.10;99.90
18868;DHT22;9563;49.240;9.088;2024-01-15T16:01:32;0.10;99.90
18868;DHT22;9563;49.240;9.088;2024-01-15T16:03:59;0.10;99.90
18868;DHT22;9563;49.240;9.088;2024-01-15T16:06:26;0.20;99.90
18868;DHT22;9563;49.240;9.088;2024-01-15T16:08:54;0.20;99.90
18868;DHT22;9563;49.240;9.088;2024-01-15T16:11:21;0.10;99.90
18868;DHT22;9563;49.240;9.088;2024-01-15T16:13:48;0.10;99.90
18868;DHT22;9563;49.240;9.088;2024-01-15T16:16:15;0.20;99.90
18868;DHT22;9563;49.240;9.088;2024-01-15T16:18:42;0.30;99.90
18868;DHT22;9563;49.240;9.088;2024-01-15T16:21:11;0.30;99.90
18868;DHT22;9563;49.240;9.088;2024-01-15T16:23:38;0.40;99.90
18868;DHT22;9563;49.240;9.088;2024-01-15T16:26:06;0.40;99.90
18868;DHT22;9563;49.240;9.088;2024-01-15T16:28:33;0.40;99.90
18868;DHT22;9563;49.240;9.088;2024-01-15T16:31:00;0.40;99.90
18868;DHT22;9563;49.240;9.088;2024-01-15T16:33:27;0.40;99.90
18868;DHT22;9563;49.240;9.088;2024-01-15T16:35:54;0.40;99.90
18868;DHT22;9563;49.240;9.088;2024-01-15T16:38:23;0.40;99.90
18868;DHT22;9563;49.240;9.088;2024-01-15T16:40:50;0.40;99.90
18868;DHT22;9563;49.240;9.088;2024-01-15T16:43:18;0.40;99.90
18868;DHT22;9563;49.240;9.088;2024-01-15T16:45:45;0.40;99.90
18868;DHT22;9563;49.240;9.088;2024-01-15T16:48:12;0.40;99.90
18868;DHT22;9563;49.240;9.088;2024-01-15T16:50:39;0.40;99.90
18868;DHT22;9563;49.240;9.088;2024-01-15T16:53:06;0.50;99.90
18868;DHT22;9563;49.240;9.088;2024-01-15T16:55:34;0.40;99.90
18868;DHT22;9563;49.240;9.088;2024-01-15T16:58:01;0.30;99.90
18868;DHT22;9563;49.240;9.088;2024-01-15T17:00:29;0.40;99.90
18868;DHT22;9563;49.240;9.088;2024-01-15T17:02:56;0.40;99.90
18868;DHT22;9563;49.240;9.088;2024-01-15T17:05:23;0.40;99.90
18868;DHT22;9563;49.240;9.088;2024-01-15T17:07:50;0.30;99.90
18868;DHT22;9563;49.240;9.088;2024-01-15T17:10:17;0.40;99.90
18868;DHT22;9563;49.240;9.088;2024-01-15T17:12:44;0.40;99.90
18868;DHT22;9563;49.240;9.088;2024-01-15T17:15:12;0.40;99.90
18868;DHT22;9563;49.240;9.088;2024-01-15T17:17:41;0.50;99.90
18868;DHT22;9563;49.240;9.088;2024-01-15T17:20:09;0.40;99.90
18868;DHT22;9563;49.240;9.088;2024-01-15T17:22:36;0.50;99.90
18868;DHT22;9563;49.240;9.088;2024-01-15T17:25:04;0.40;99.90
18868;DHT22;9563;49.240;9.088;2024-01-15T17:27:32;0.40;99.90
18868;DHT22;9563;49.240;9.088;2024-01-15T17:29:59;0.30;99.90
18868;DHT22;9563;49.240;9.088;2024-01-15T17:32:26;0.30;99.90
18868;DHT22;9563;49.240;9.088;2024-01-15T17:34:54;0.30;99.90
18868;DHT22;9563;49.240;9.088;2024-01-15T17:37:21;0.30;99.90
18868;DHT22;9563;49.240;9.088;2024-01-15T17:39:48;0.30;99.90
18868;DHT22;9563;49.240;9.088;2024-01-15T17:42:15;0.30;99.90
18868;DHT22;9563;49.240;9.088;2024-01-15T17:44:43;0.30;99.90
18868;DHT22;9563;49.240;9.088;2024-01-15T17:47:10;0.30;99.90
18868;DHT22;9563;49.240;9.088;2024-01-15T17:49:36;0.30;99.90
18868;DHT22;9563;49.240;9.088;2024-01-15T17:52:08;0.30;99.90
18868;DHT22;9563;49.240;9.088;2024-01-15T17:54:35;0.30;99.90
18868;DHT22;9563;49.240;9.088;2024-01-15T17:57:02;0.40;99.90
18868;DHT22;9563;49.240;9.088;2024-01-15T17:59:29;0.40;99.90
18868;DHT22;9563;49.240;9.088;2024-01-15T18:01:56;0.40;99.90
18868;DHT22;9563;49.240;9.088;2024-01-15T18:04:23;0.40;99.90
18868;DHT22;9563;49.240;9.088;2024-01-15T18:06:50;0.40;99.90
18868;DHT22;9563;49.240;9.088;2024-01-15T18:09:18;0.40;99.90
18868;DHT22;9563;49.240;9.088;2024-01-15T18:11:45;0.40;99.90
18868;DHT22;9563;49.240;9.088;2024-01-15T18:14:12;0.40;99.90
18868;DHT22;9563;49.240;9.088;2024-01-15T18:16:41;0.40;99.90
18868;DHT22;9563;49.240;9.088;2024-01-15T18:19:11;0.40;99.90
18868;DHT22;9563;49.240;9.088;2024-01-15T18:21:38;0.30;99.90
18868;DHT22;9563;49.240;9.088;2024-01-15T18:24:05;0.30;99.90
18868;DHT22;9563;49.240;9.088;2024-01-15T18:26:33;0.40;99.90
18868;DHT22;9563;49.240;9.088;2024-01-15T18:29:01;0.30;99.90
18868;DHT22;9563;49.240;9.088;2024-01-15T18:31:29;0.40;99.90
18868;DHT22;9563;49.240;9.088;2024-01-15T18:33:56;0.40;99.90
18868;DHT22;9563;49.240;9.088;2024-01-15T18:36:23;0.40;99.90
18868;DHT22;9563;49.240;9.088;2024-01-15T18:38:50;0.40;99.90
18868;DHT22;9563;49.240;9.088;2024-01-15T18:41:20;0.40;99.90
18868;DHT22;9563;49.240;9.088;2024-01-15T18:43:48;0.40;99.90
18868;DHT22;9563;49.240;9.088;2024-01-15T18:46:17;0.30;99.90
18868;DHT22;9563;49.240;9.088;2024-01-15T18:48:44;0.40;99.90
18868;DHT22;9563;49.240;9.088;2024-01-15T18:51:19;0.40;99.90
18868;DHT22;9563;49.240;9.088;2024-01-15T18:53:46;0.40;99.90
18868;DHT22;9563;49.240;9.088;2024-01-15T18:56:13;0.40;99.90
18868;DHT22;9563;49.240;9.088;2024-01-15T18:58:40;0.40;99.90
18868;DHT22;9563;49.240;9.088;2024-01-15T19:01:10;0.40;99.90
18868;DHT22;9563;49.240;9.088;2024-01-15T19:03:39;0.40;99.90
18868;DHT22;9563;49.240;9.088;2024-01-15T19:06:06;0.40;99.90
18868;DHT22;9563;49.240;9.088;2024-01-15T19:08:34;0.40;99.90
18868;DHT22;9563;49.240;9.088;2024-01-15T19:11:01;0.40;99.90
18868;DHT22;9563;49.240;9.088;2024-01-15T19:13:28;0.50;99.90
18868;DHT22;9563;49.240;9.088;2024-01-15T19:15:55;0.40;99.90
18868;DHT22;9563;49.240;9.088;2024-01-15T19:18:25;0.40;99.90
18868;DHT22;9563;49.240;9.088;2024-01-15T19:20:53;0.40;99.90
18868;DHT22;9563;49.240;9.088;2024-01-15T19:23:20;0.40;99.90
18868;DHT22;9563;49.240;9.088;2024-01-15T19:25:47;0.40;99.90
18868;DHT22;9563;49.240;9.088;2024-01-15T19:28:14;0.40;99.90
18868;DHT22;9563;49.240;9.088;2024-01-15T19:30:41;0.30;99.90
18868;DHT22;9563;49.240;9.088;2024-01-15T19:33:08;0.30;99.90
18868;DHT22;9563;49.240;9.088;2024-01-15T19:35:36;0.40;99.90
18868;DHT22;9563;49.240;9.088;2024-01-15T19:38:04;0.30;99.90
18868;DHT22;9563;49.240;9.088;2024-01-15T19:40:31;0.30;99.90
18868;DHT22;9563;49.240;9.088;2024-01-15T19:42:58;0.30;99.90
18868;DHT22;9563;49.240;9.088;2024-01-15T19:45:26;0.30;99.90
18868;DHT22;9563;49.240;9.088;2024-01-15T19:47:53;0.30;99.90
18868;DHT22;9563;49.240;9.088;2024-01-15T19:50:20;0.30;99.90
18868;DHT22;9563;49.240;9.088;2024-01-15T19:52:49;0.30;99.90
18868;DHT22;9563;49.240;9.088;2024-01-15T19:55:15;0.30;99.90
18868;DHT22;9563;49.240;9.088;2024-01-15T19:57:42;0.30;99.90
18868;DHT22;9563;49.240;9.088;2024-01-15T20:00:10;0.30;99.90
18868;DHT22;9563;49.240;9.088;2024-01-15T20:02:37;0.30;99.90
18868;DHT22;9563;49.240;9.088;2024-01-15T20:05:06;0.30;99.90
18868;DHT22;9563;49.240;9.088;2024-01-15T20:07:34;0.30;99.90
18868;DHT22;9563;49.240;9.088;2024-01-15T20:10:04;0.30;99.90
18868;DHT22;9563;49.240;9.088;2024-01-15T20:12:31;0.30;99.90
18868;DHT22;9563;49.240;9.088;2024-01-15T20:14:58;0.30;99.90
18868;DHT22;9563;49.240;9.088;2024-01-15T20:17:25;0.30;99.90
18868;DHT22;9563;49.240;9.088;2024-01-15T20:19:52;0.30;99.90
18868;DHT22;9563;49.240;9.088;2024-01-15T20:22:19;0.30;99.90
18868;DHT22;9563;49.240;9.088;2024-01-15T20:24:47;0.30;99.90
18868;DHT22;9563;49.240;9.088;2024-01-15T20:27:15;0.30;99.90
18868;DHT22;9563;49.240;9.088;2024-01-15T20:29:43;0.30;99.90
18868;DHT22;9563;49.240;9.088;2024-01-15T20:32:10;0.30;99.90
18868;DHT22;9563;49.240;9.088;2024-01-15T20:34:37;0.30;99.90
18868;DHT22;9563;49.240;9.088;2024-01-15T20:37:04;0.30;99.90
18868;DHT22;9563;49.240;9.088;2024-01-15T20:39:31;0.30;99.90
18868;DHT22;9563;49.240;9.088;2024-01-15T20:41:58;0.30;99.90
18868;DHT22;9563;49.240;9.088;2024-01-15T20:44:26;0.20;99.90
18868;DHT22;9563;49.240;9.088;2024-01-15T20:46:53;0.20;99.90
18868;DHT22;9563;49.240;9.088;2024-01-15T20:49:20;0.20;99.90
18868;DHT22;9563;49.240;9.088;2024-01-15T20:51:47;0.20;99.90
18868;DHT22;9563;49.240;9.088;2024-01-15T20:54:14;0.10;99.90
18868;DHT22;9563;49.240;9.088;2024-01-15T20:56:41;0.00;99.90
18868;DHT22;9563;49.240;9.088;2024-01-15T20:59:08;0.00;99.90
18868;DHT22;9563;49.240;9.088;2024-01-15T21:01:36;-0.10;99.90
18868;DHT22;9563;49.240;9.088;2024-01-15T21:04:03;-0.10;99.90
18868;DHT22;9563;49.240;9.088;2024-01-15T21:06:32;-0.30;99.90
18868;DHT22;9563;49.240;9.088;2024-01-15T21:08:59;-0.30;99.90
18868;DHT22;9563;49.240;9.088;2024-01-15T21:11:26;-0.30;99.90
18868;DHT22;9563;49.240;9.088;2024-01-15T21:13:54;-0.30;99.90
18868;DHT22;9563;49.240;9.088;2024-01-15T21:16:21;-0.30;99.90
18868;DHT22;9563;49.240;9.088;2024-01-15T21:18:49;-0.30;99.90
18868;DHT22;9563;49.240;9.088;2024-01-15T21:21:16;-0.30;99.90
18868;DHT22;9563;49.240;9.088;2024-01-15T21:23:44;-0.30;99.90
18868;DHT22;9563;49.240;9.088;2024-01-15T21:26:11;-0.30;99.90
18868;DHT22;9563;49.240;9.088;2024-01-15T21:28:38;-0.30;99.90
18868;DHT22;9563;49.240;9.088;2024-01-15T21:31:05;-0.30;99.90
18868;DHT22;9563;49.240;9.088;2024-01-15T21:33:32;-0.30;99.90
18868;DHT22;9563;49.240;9.088;2024-01-15T21:36:04;-0.20;99.90
18868;DHT22;9563;49.240;9.088;2024-01-15T21:38:31;-0.20;99.90
18868;DHT22;9563;49.240;9.088;2024-01-15T21:40:58;-0.20;99.90
18868;DHT22;9563;49.240;9.088;2024-01-15T21:43:25;-0.20;99.90
18868;DHT22;9563;49.240;9.088;2024-01-15T21:45:52;-0.10;99.90
